createdAt,value
2022-09-15T04:02:37.071Z,87.21
2022-09-15T04:05:03.904Z,86.74
2022-09-15T04:07:30.411Z,86.34
2022-09-15T04:09:57.287Z,86.20
2022-09-15T04:12:23.837Z,86.24
2022-09-15T04:14:50.270Z,85.55
2022-09-15T04:17:17.014Z,85.94
2022-09-15T04:19:43.550Z,85.83
2022-09-15T04:22:13.182Z,85.35
2022-09-15T04:24:42.214Z,85.02
2022-09-15T04:27:10.078Z,85.34
2022-09-15T04:29:37.145Z,85.72
2022-09-15T04:32:04.069Z,85.95
2022-09-15T04:34:31.126Z,86.10
2022-09-15T04:36:57.647Z,85.78
2022-09-15T04:39:24.477Z,85.54
2022-09-15T04:41:51.260Z,85.83
2022-09-15T04:44:18.202Z,85.76
2022-09-15T04:46:44.712Z,85.61
2022-09-15T04:49:11.426Z,85.51
2022-09-15T04:51:39.043Z,85.96
2022-09-15T04:54:05.888Z,86.01
2022-09-15T04:56:32.384Z,86.36
2022-09-15T04:59:03.936Z,86.66
2022-09-15T05:01:34.597Z,86.78
2022-09-15T05:04:04.051Z,86.71
2022-09-15T05:06:32.879Z,86.21
2022-09-15T05:08:59.814Z,86.38
2022-09-15T05:11:27.223Z,86.28
2022-09-15T05:13:58.237Z,86.56
2022-09-15T05:16:29.196Z,86.24
2022-09-15T05:18:58.395Z,85.95
2022-09-15T05:21:26.109Z,85.78
2022-09-15T05:23:53.038Z,85.26
2022-09-15T05:26:22.700Z,85.09
2022-09-15T05:28:50.510Z,84.95
2022-09-15T05:31:26.682Z,84.80
2022-09-15T05:33:54.054Z,84.64
2022-09-15T05:36:25.074Z,84.35
2022-09-15T05:38:53.419Z,84.56
2022-09-15T05:41:21.023Z,83.99
2022-09-15T05:43:49.523Z,84.78
2022-09-15T05:46:17.129Z,85.16
2022-09-15T05:48:45.103Z,84.63
2022-09-15T05:51:12.052Z,84.48
2022-09-15T05:53:39.213Z,84.04
2022-09-15T05:56:08.283Z,82.96
2022-09-15T05:58:35.103Z,82.82
2022-09-15T06:01:07.661Z,82.20
2022-09-15T06:03:34.653Z,82.35
2022-09-15T06:06:02.664Z,81.43
2022-09-15T06:08:34.970Z,81.10
2022-09-15T06:11:06.236Z,80.66
2022-09-15T06:13:33.242Z,80.22
2022-09-15T06:16:09.344Z,79.37
2022-09-15T06:18:37.356Z,78.41
2022-09-15T06:21:06.106Z,77.40
2022-09-15T06:23:32.799Z,77.52
2022-09-15T06:26:11.939Z,78.13
2022-09-15T06:28:39.999Z,78.13
2022-09-15T06:31:12.123Z,78.12
2022-09-15T06:33:43.915Z,78.23
2022-09-15T06:36:15.504Z,78.30
2022-09-15T06:38:42.400Z,78.55
2022-09-15T06:41:10.052Z,78.54
2022-09-15T06:43:37.328Z,79.38
2022-09-15T06:46:16.551Z,81.06
2022-09-15T06:48:46.366Z,81.52
2022-09-15T06:51:17.321Z,81.96
2022-09-15T06:53:44.681Z,79.40
2022-09-15T06:56:14.767Z,78.01
2022-09-15T06:58:43.045Z,76.90
2022-09-15T07:01:15.306Z,76.66
2022-09-15T07:03:45.717Z,76.87
2022-09-15T07:06:12.494Z,77.16
2022-09-15T07:08:40.012Z,77.24
2022-09-15T07:11:08.796Z,77.34
2022-09-15T07:13:36.116Z,76.81
2022-09-15T07:16:04.605Z,76.19
2022-09-15T07:18:33.155Z,75.53
2022-09-15T07:21:06.195Z,75.75
2022-09-15T07:23:36.171Z,75.70
2022-09-15T07:26:23.469Z,76.47
2022-09-15T07:29:01.582Z,76.15
2022-09-15T07:31:31.310Z,76.31
2022-09-15T07:33:59.707Z,76.16
2022-09-15T07:36:27.460Z,75.52
2022-09-15T07:38:54.167Z,75.56
2022-09-15T07:41:28.010Z,76.69
2022-09-15T07:43:56.845Z,77.12
2022-09-15T07:46:25.600Z,77.10
2022-09-15T07:48:56.343Z,76.78
2022-09-15T07:51:23.815Z,76.46
2022-09-15T07:53:51.135Z,75.23
2022-09-15T07:56:18.647Z,75.51
2022-09-15T07:58:46.649Z,75.53
2022-09-15T08:01:17.855Z,75.45
2022-09-15T08:03:49.085Z,73.31
2022-09-15T08:06:17.970Z,71.71
2022-09-15T08:08:44.600Z,70.99
2022-09-15T08:11:18.414Z,67.41
2022-09-15T08:13:49.825Z,67.33
2022-09-15T08:16:21.429Z,67.16
2022-09-15T08:18:52.527Z,68.03
2022-09-15T08:21:21.047Z,68.89
2022-09-15T08:23:58.763Z,70.03
2022-09-15T08:26:26.960Z,71.72
2022-09-15T08:28:53.706Z,72.67
2022-09-15T08:31:20.794Z,72.93
2022-09-15T08:33:49.859Z,75.64
2022-09-15T08:36:16.383Z,76.39
2022-09-15T08:38:44.844Z,78.79
2022-09-15T08:41:22.995Z,78.40
2022-09-15T08:44:05.709Z,78.61
2022-09-15T08:46:43.257Z,78.35
2022-09-15T08:49:40.842Z,77.22
2022-09-15T08:52:52.647Z,77.46
2022-09-15T08:55:33.008Z,76.57
2022-09-15T08:57:59.677Z,75.67
2022-09-15T09:00:27.813Z,75.23
2022-09-15T09:03:06.677Z,75.59
2022-09-15T09:05:57.501Z,74.35
2022-09-15T09:08:56.106Z,74.87
2022-09-15T09:11:43.779Z,69.03
2022-09-15T09:14:46.186Z,62.54
2022-09-15T09:17:40.787Z,63.65
2022-09-15T09:20:32.092Z,66.69
2022-09-15T09:23:01.261Z,70.46
2022-09-15T09:25:28.514Z,71.36
2022-09-15T09:27:58.348Z,74.32
2022-09-15T09:30:27.702Z,77.02
2022-09-15T09:33:04.636Z,79.67
2022-09-15T09:35:43.866Z,80.98
2022-09-15T09:38:13.006Z,82.00
2022-09-15T09:40:41.456Z,81.21
2022-09-15T09:43:08.766Z,80.52
2022-09-15T09:45:36.208Z,80.71
2022-09-15T09:48:15.239Z,79.49
2022-09-15T09:50:45.943Z,78.17
2022-09-15T09:53:24.750Z,78.07
2022-09-15T09:55:53.482Z,75.94
2022-09-15T09:58:23.112Z,75.81
2022-09-15T10:00:52.430Z,74.95
2022-09-15T10:03:27.008Z,70.76
2022-09-15T10:06:06.705Z,68.89
2022-09-15T10:08:36.370Z,67.15
2022-09-15T10:11:10.366Z,66.71
2022-09-15T10:13:50.912Z,62.44
2022-09-15T10:16:19.751Z,63.09
2022-09-15T10:18:53.569Z,63.69
2022-09-15T10:21:24.879Z,64.84
2022-09-15T10:23:52.280Z,63.75
2022-09-15T10:26:22.127Z,63.87
2022-09-15T10:29:12.998Z,63.71
2022-09-15T10:31:40.921Z,62.10
2022-09-15T10:34:31.072Z,56.81
2022-09-15T10:37:20.177Z,49.61
2022-09-15T10:39:52.731Z,46.30
2022-09-15T10:42:44.067Z,48.09
2022-09-15T10:45:17.734Z,49.11
2022-09-15T10:48:34.042Z,49.60
2022-09-15T10:51:28.300Z,49.42
2022-09-15T10:53:57.808Z,47.88
2022-09-15T10:56:48.827Z,48.72
2022-09-15T10:59:54.409Z,47.48
2022-09-15T11:02:42.798Z,48.75
2022-09-15T11:05:11.902Z,48.03
2022-09-15T11:07:50.978Z,48.53
2022-09-15T11:10:30.579Z,48.51
2022-09-15T11:13:20.703Z,48.41
2022-09-15T11:15:47.601Z,50.24
2022-09-15T11:18:36.759Z,47.25
2022-09-15T11:21:14.248Z,46.21
2022-09-15T11:24:11.444Z,45.95
2022-09-15T11:26:54.746Z,43.52
2022-09-15T11:29:30.756Z,43.48
2022-09-15T11:32:04.583Z,43.81
2022-09-15T11:34:39.112Z,42.42
2022-09-15T11:37:20.918Z,39.21
2022-09-15T11:39:54.520Z,38.99
2022-09-15T11:42:35.979Z,40.29
2022-09-15T11:45:03.492Z,38.65
2022-09-15T11:47:46.284Z,39.65
2022-09-15T11:50:25.007Z,39.61
2022-09-15T11:53:16.934Z,39.30
2022-09-15T11:55:57.063Z,39.55
2022-09-15T11:58:38.142Z,39.16
2022-09-15T12:01:07.350Z,39.46
2022-09-15T12:04:08.529Z,40.97
2022-09-15T12:06:54.446Z,39.92
2022-09-15T12:09:22.282Z,36.90
2022-09-15T12:11:53.701Z,37.27
2022-09-15T12:14:30.559Z,36.81
2022-09-15T12:16:58.567Z,41.72
2022-09-15T12:19:37.317Z,43.83
2022-09-15T12:22:19.449Z,44.62
2022-09-15T12:25:00.789Z,44.41
2022-09-15T12:27:28.252Z,44.36
2022-09-15T12:29:57.732Z,43.74
2022-09-15T12:32:30.790Z,43.26
2022-09-15T12:35:11.435Z,44.50
2022-09-15T12:37:53.061Z,45.85
2022-09-15T12:40:28.953Z,46.60
2022-09-15T12:42:56.825Z,47.94
2022-09-15T12:45:27.344Z,47.32
2022-09-15T12:48:09.098Z,46.99
2022-09-15T12:50:39.347Z,46.64
2022-09-15T12:53:23.076Z,46.31
2022-09-15T12:55:56.188Z,46.62
2022-09-15T12:58:30.345Z,46.93
2022-09-15T13:01:19.287Z,47.76
2022-09-15T13:03:46.294Z,47.48
2022-09-15T13:06:34.997Z,44.92
2022-09-15T13:09:01.543Z,47.21
2022-09-15T13:11:37.601Z,49.30
2022-09-15T13:14:04.354Z,51.38
2022-09-15T13:16:58.338Z,52.06
2022-09-15T13:19:35.920Z,44.33
2022-09-15T13:22:12.736Z,48.21
2022-09-15T13:24:51.215Z,49.28
2022-09-15T13:27:38.126Z,50.89
2022-09-15T13:30:20.056Z,50.15
2022-09-15T13:32:59.240Z,49.47
2022-09-15T13:36:08.597Z,48.88
2022-09-15T13:38:41.004Z,49.48
2022-09-15T13:41:23.672Z,51.13
2022-09-15T13:44:10.114Z,52.18
2022-09-15T13:46:51.576Z,52.90
2022-09-15T13:49:36.309Z,53.20
2022-09-15T13:52:12.689Z,53.36
2022-09-15T13:55:14.520Z,53.51
2022-09-15T14:00:34.922Z,52.80
2022-09-15T14:03:11.695Z,52.94
2022-09-15T14:05:38.594Z,52.78
2022-09-15T14:08:20.193Z,51.52
2022-09-15T14:11:01.073Z,51.27
2022-09-15T14:13:29.040Z,50.58
2022-09-15T14:16:00.744Z,52.09
2022-09-15T14:18:29.144Z,53.33
2022-09-15T14:21:04.394Z,54.20
2022-09-15T14:23:31.805Z,55.34
2022-09-15T14:26:02.808Z,56.22
2022-09-15T14:28:32.473Z,56.40
2022-09-15T14:31:02.963Z,56.95
2022-09-15T14:33:38.055Z,57.22
2022-09-15T14:36:22.934Z,57.25
2022-09-15T14:39:10.572Z,57.84
2022-09-15T14:41:40.194Z,57.75
2022-09-15T14:47:28.078Z,58.12
2022-09-15T14:50:09.777Z,58.16
2022-09-15T14:52:40.836Z,58.60
2022-09-15T14:55:18.930Z,58.77
2022-09-15T14:58:00.203Z,58.52
2022-09-15T15:00:34.662Z,58.83
2022-09-15T15:03:25.332Z,58.21
2022-09-15T15:06:25.388Z,58.23
2022-09-15T15:08:58.003Z,58.16
2022-09-15T15:11:24.856Z,58.48
2022-09-15T15:13:52.928Z,60.67
2022-09-15T15:16:31.733Z,65.60
2022-09-15T15:18:59.287Z,66.31
2022-09-15T15:21:42.393Z,69.55
2022-09-15T15:24:20.381Z,70.43
2022-09-15T15:26:49.466Z,71.46
2022-09-15T15:29:40.427Z,73.27
2022-09-15T15:32:11.767Z,73.71
2022-09-15T15:34:38.860Z,72.69
2022-09-15T15:37:18.700Z,73.06
2022-09-15T15:39:46.719Z,72.41
2022-09-15T15:42:16.207Z,72.05
2022-09-15T15:45:16.741Z,71.81
2022-09-15T15:47:43.859Z,70.97
2022-09-15T15:50:23.478Z,70.18
2022-09-15T15:52:51.515Z,70.67
2022-09-15T15:55:24.508Z,70.10
2022-09-15T15:57:53.484Z,69.72
2022-09-15T16:00:28.150Z,69.83
2022-09-15T16:02:54.913Z,69.89
2022-09-15T16:05:25.963Z,69.71
2022-09-15T16:07:54.846Z,69.50
2022-09-15T16:10:23.768Z,69.94
2022-09-15T16:12:50.653Z,70.37
2022-09-15T16:15:20.023Z,70.32
2022-09-15T16:17:47.500Z,70.34
2022-09-15T16:20:16.073Z,70.76
2022-09-15T16:22:43.311Z,71.17
2022-09-15T16:25:28.708Z,71.02
2022-09-15T16:27:55.392Z,70.94
2022-09-15T16:30:22.097Z,71.11
2022-09-15T16:32:48.691Z,70.27
2022-09-15T16:35:21.413Z,69.65
2022-09-15T16:37:47.915Z,69.22
2022-09-15T16:40:14.740Z,67.91
2022-09-15T16:42:41.457Z,67.06
2022-09-15T16:45:40.591Z,66.68
2022-09-15T16:48:08.825Z,66.49
2022-09-15T16:50:36.583Z,66.51
2022-09-15T16:53:14.061Z,66.44
2022-09-15T16:55:46.491Z,66.75
2022-09-15T16:58:14.586Z,66.43
2022-09-15T17:00:43.519Z,66.53
2022-09-15T17:03:14.937Z,67.19
2022-09-15T17:05:48.552Z,67.66
2022-09-15T17:08:16.817Z,68.23
2022-09-15T17:10:43.837Z,68.47
2022-09-15T17:13:16.377Z,68.86
2022-09-15T17:15:43.788Z,69.22
2022-09-15T17:18:13.362Z,69.27
2022-09-15T17:20:39.916Z,69.51
2022-09-15T17:23:27.791Z,69.75
2022-09-15T17:25:58.401Z,69.92
2022-09-15T17:28:31.158Z,70.25
2022-09-15T17:31:00.487Z,70.69
2022-09-15T17:33:28.348Z,70.52
2022-09-15T17:35:55.294Z,71.08
2022-09-15T17:38:22.271Z,71.50
2022-09-15T17:40:49.887Z,71.56
2022-09-15T17:43:22.189Z,71.63
2022-09-15T17:45:49.823Z,71.20
2022-09-15T17:48:16.969Z,70.42
2022-09-15T17:50:45.299Z,69.43
2022-09-15T17:53:14.110Z,69.38
2022-09-15T17:55:41.084Z,68.70
2022-09-15T17:58:08.372Z,68.63
2022-09-15T18:00:38.479Z,68.11
2022-09-15T18:03:15.983Z,68.35
2022-09-15T18:05:42.507Z,68.42
2022-09-15T18:08:09.591Z,69.02
2022-09-15T18:10:36.793Z,69.01
2022-09-15T18:13:05.373Z,69.51
2022-09-15T18:15:34.568Z,70.30
2022-09-15T18:18:04.189Z,70.14
2022-09-15T18:20:32.895Z,70.59
2022-09-15T18:23:00.226Z,70.71
2022-09-15T18:25:35.009Z,71.44
2022-09-15T18:28:04.551Z,71.95
2022-09-15T18:30:33.965Z,72.15
2022-09-15T18:33:00.759Z,72.68
2022-09-15T18:35:27.396Z,73.01
2022-09-15T18:37:59.440Z,73.22
2022-09-15T18:40:27.760Z,73.30
2022-09-15T18:42:54.876Z,73.52
2022-09-15T18:45:21.594Z,73.72
2022-09-15T18:47:49.220Z,73.59
2022-09-15T18:50:17.213Z,73.84
2022-09-15T18:52:44.119Z,73.99
2022-09-15T18:55:15.229Z,74.53
2022-09-15T18:57:42.555Z,74.69
2022-09-15T19:00:15.638Z,75.18
2022-09-15T19:02:42.869Z,75.37
2022-09-15T19:05:15.387Z,75.46
2022-09-15T19:07:45.332Z,75.77
2022-09-15T19:10:14.362Z,75.41
2022-09-15T19:12:41.053Z,76.23
2022-09-15T19:15:12.096Z,76.84
2022-09-15T19:17:39.588Z,76.87
2022-09-15T19:20:08.400Z,77.18
2022-09-15T19:22:35.929Z,77.60
2022-09-15T19:25:03.036Z,77.69
2022-09-15T19:27:29.979Z,77.92
2022-09-15T19:29:56.637Z,78.14
2022-09-15T19:32:23.299Z,78.05
2022-09-15T19:34:50.104Z,78.31
2022-09-15T19:37:19.738Z,78.41
2022-09-15T19:39:47.703Z,78.91
2022-09-15T19:44:43.541Z,78.11
2022-09-15T19:47:10.553Z,78.23
2022-09-15T19:49:38.130Z,80.07
2022-09-15T19:52:06.419Z,80.52
2022-09-15T19:54:34.580Z,80.10
2022-09-15T19:57:01.888Z,80.32
2022-09-15T19:59:31.723Z,81.08
2022-09-15T20:01:59.777Z,81.26
2022-09-15T20:04:27.206Z,80.76
2022-09-15T20:06:53.799Z,81.27
2022-09-15T20:09:20.406Z,80.63
2022-09-15T20:11:47.029Z,82.05
2022-09-15T20:14:14.019Z,81.93
2022-09-15T20:16:41.065Z,82.05
2022-09-15T20:19:07.917Z,81.71
2022-09-15T20:21:52.255Z,81.26
2022-09-15T20:24:20.550Z,81.34
2022-09-15T20:26:47.530Z,81.19
2022-09-15T20:29:14.395Z,80.79
2022-09-15T20:31:41.458Z,79.50
2022-09-15T20:34:08.050Z,79.22
2022-09-15T20:36:36.745Z,79.56
2022-09-15T20:39:05.833Z,79.45
2022-09-15T20:41:32.469Z,79.36
2022-09-15T20:43:59.329Z,79.54
2022-09-15T20:46:26.577Z,79.98
2022-09-15T20:48:53.421Z,81.20
2022-09-15T20:51:25.712Z,80.48
2022-09-15T20:53:55.139Z,80.36
2022-09-15T20:56:25.482Z,81.50
2022-09-15T20:58:59.097Z,82.92
2022-09-15T21:01:29.195Z,81.63
2022-09-15T21:03:55.859Z,82.18
2022-09-15T21:06:25.380Z,82.78
2022-09-15T21:08:53.419Z,83.29
2022-09-15T21:11:21.332Z,83.23
2022-09-15T21:13:48.909Z,83.04
2022-09-15T21:16:18.504Z,83.23
2022-09-15T21:18:45.565Z,83.64
2022-09-15T21:21:26.315Z,83.32
2022-09-15T21:23:55.031Z,83.76
2022-09-15T21:26:27.127Z,83.56
2022-09-15T21:28:55.155Z,83.53
2022-09-15T21:31:25.548Z,83.30
2022-09-15T21:33:53.046Z,83.27
2022-09-15T21:36:23.124Z,83.10
2022-09-15T21:38:51.484Z,82.82
2022-09-15T21:41:21.803Z,82.76
2022-09-15T21:43:49.269Z,82.91
2022-09-15T21:46:18.314Z,82.89
2022-09-15T21:48:47.407Z,82.89
2022-09-15T21:51:15.580Z,82.60
2022-09-15T21:53:45.989Z,82.55
2022-09-15T21:56:13.375Z,82.74
2022-09-15T21:58:43.057Z,82.72
2022-09-15T22:01:23.479Z,82.51
2022-09-15T22:03:55.990Z,82.12
2022-09-15T22:06:31.653Z,82.10
2022-09-15T22:09:06.731Z,82.99
2022-09-15T22:11:34.007Z,83.14
2022-09-15T22:14:03.363Z,84.90
2022-09-15T22:16:30.066Z,85.15
2022-09-15T22:18:57.111Z,85.11
2022-09-15T22:21:27.120Z,84.62
2022-09-15T22:23:55.846Z,83.84
2022-09-15T22:26:25.932Z,82.28
2022-09-15T22:28:53.258Z,83.03
2022-09-15T22:31:21.582Z,82.41
2022-09-15T22:33:48.567Z,83.25
2022-09-15T22:36:18.061Z,83.58
2022-09-15T22:38:45.161Z,82.87
2022-09-15T22:41:15.050Z,82.71
2022-09-15T22:43:43.525Z,82.59
2022-09-15T22:46:10.584Z,82.53
2022-09-15T22:48:42.467Z,82.40
2022-09-15T22:51:10.588Z,82.33
2022-09-15T22:53:37.222Z,83.18
2022-09-15T22:56:07.406Z,81.58
2022-09-15T22:58:35.207Z,82.54
2022-09-15T23:01:09.762Z,82.31
2022-09-15T23:03:37.615Z,83.74
2022-09-15T23:06:05.013Z,83.83
2022-09-15T23:08:33.022Z,84.24
2022-09-15T23:11:12.311Z,84.73
2022-09-15T23:13:40.092Z,85.09
2022-09-15T23:16:07.884Z,83.91
2022-09-15T23:18:35.391Z,85.53
2022-09-15T23:21:07.569Z,85.68
2022-09-15T23:23:35.715Z,85.55
2022-09-15T23:26:05.926Z,85.17
2022-09-15T23:28:32.627Z,85.89
2022-09-15T23:30:59.914Z,85.60
2022-09-15T23:33:28.233Z,85.76
2022-09-15T23:35:55.389Z,85.65
2022-09-15T23:38:22.654Z,86.17
2022-09-15T23:40:50.365Z,85.73
2022-09-15T23:43:17.355Z,85.41
2022-09-15T23:45:45.246Z,85.31
2022-09-15T23:48:13.003Z,84.68
2022-09-15T23:50:40.367Z,84.30
2022-09-15T23:53:07.785Z,85.16
2022-09-15T23:55:34.839Z,86.28
2022-09-15T23:58:01.584Z,86.87
